createdAt,value
2022-12-04T00:00:30.309Z,33.53
2022-12-04T00:02:32.445Z,32.83
2022-12-04T00:04:34.721Z,31.53
2022-12-04T00:06:40.617Z,36.80
2022-12-04T00:08:43.536Z,34.53
2022-12-04T00:10:45.835Z,36.83
2022-12-04T00:12:47.975Z,29.37
2022-12-04T00:15:23.858Z,30.73
2022-12-04T00:17:12.491Z,29.13
2022-12-04T00:19:14.663Z,30.57
2022-12-04T00:21:17.933Z,26.30
2022-12-04T00:23:20.645Z,25.77
2022-12-04T00:25:22.981Z,23.47
2022-12-04T00:27:25.244Z,27.93
2022-12-04T00:29:27.459Z,29.80
2022-12-04T00:31:34.009Z,27.07
2022-12-04T00:33:37.370Z,24.27
2022-12-04T00:35:40.565Z,22.47
2022-12-04T00:37:42.878Z,24.47
2022-12-04T00:39:44.978Z,24.17
2022-12-04T00:41:46.962Z,22.73
2022-12-04T00:43:49.177Z,25.70
2022-12-04T00:45:51.518Z,26.10
2022-12-04T00:47:53.941Z,25.20
2022-12-04T00:49:56.211Z,23.47
2022-12-04T00:51:58.726Z,20.73
2022-12-04T00:54:03.203Z,21.70
2022-12-04T00:56:08.767Z,24.43
2022-12-04T00:58:11.597Z,19.03
2022-12-04T01:00:13.826Z,22.90
2022-12-04T01:02:15.980Z,21.07
2022-12-04T01:04:18.288Z,18.87
2022-12-04T01:06:32.037Z,21.33
2022-12-04T01:08:34.253Z,23.03
2022-12-04T01:10:40.729Z,20.63
2022-12-04T01:12:42.714Z,20.93
2022-12-04T01:14:45.096Z,29.33
2022-12-04T01:16:47.815Z,31.40
2022-12-04T01:18:50.459Z,30.27
2022-12-04T01:20:55.714Z,23.63
2022-12-04T01:22:57.627Z,22.70
2022-12-04T01:24:59.637Z,28.37
2022-12-04T01:27:02.086Z,20.97
2022-12-04T01:29:04.646Z,20.30
2022-12-04T01:31:13.490Z,19.77
2022-12-04T01:33:15.919Z,18.47
2022-12-04T01:35:18.531Z,15.67
2022-12-04T01:37:20.860Z,18.27
2022-12-04T01:39:23.122Z,16.13
2022-12-04T01:41:28.381Z,20.77
2022-12-04T01:43:32.843Z,21.73
2022-12-04T01:45:55.702Z,18.93
2022-12-04T01:48:07.897Z,17.20
2022-12-04T01:50:10.581Z,16.27
2022-12-04T01:52:19.490Z,13.97
2022-12-04T01:54:28.883Z,15.07
2022-12-04T01:56:34.956Z,15.47
2022-12-04T01:58:42.585Z,16.83
2022-12-04T02:00:49.683Z,16.63
2022-12-04T02:02:54.277Z,18.20
2022-12-04T02:04:57.090Z,14.67
2022-12-04T02:06:59.302Z,18.30
2022-12-04T02:09:01.899Z,16.10
2022-12-04T02:11:12.871Z,13.87
2022-12-04T02:13:25.475Z,18.00
2022-12-04T02:15:54.460Z,25.13
2022-12-04T02:18:13.429Z,17.53
2022-12-04T02:20:28.908Z,17.27
2022-12-04T02:22:55.643Z,12.87
2022-12-04T02:25:19.224Z,15.30
2022-12-04T02:27:39.514Z,16.20
2022-12-04T02:29:54.568Z,21.80
2022-12-04T02:32:09.219Z,21.73
2022-12-04T02:34:23.820Z,19.17
2022-12-04T02:36:32.870Z,20.67
2022-12-04T02:38:47.194Z,22.50
2022-12-04T02:41:04.129Z,18.70
2022-12-04T02:43:26.205Z,16.33
2022-12-04T02:45:38.016Z,15.00
2022-12-04T02:47:42.573Z,18.30
2022-12-04T02:49:49.820Z,16.83
2022-12-04T02:51:55.453Z,15.43
2022-12-04T02:54:02.676Z,13.90
2022-12-04T02:56:19.544Z,14.80
2022-12-04T02:58:55.438Z,14.40
2022-12-04T03:01:01.055Z,9.00
2022-12-04T03:03:07.842Z,11.30
2022-12-04T03:05:13.934Z,8.47
2022-12-04T03:07:20.441Z,11.23
2022-12-04T03:09:31.034Z,10.53
2022-12-04T03:11:36.570Z,9.00
2022-12-04T03:14:04.334Z,16.70
2022-12-04T03:16:20.095Z,15.73
2022-12-04T03:18:27.761Z,15.30
2022-12-04T03:20:33.543Z,13.40
2022-12-04T03:22:38.395Z,13.67
2022-12-04T03:24:48.603Z,13.13
2022-12-04T03:27:41.684Z,12.77
2022-12-04T03:30:09.292Z,11.30
2022-12-04T03:32:23.518Z,10.53
2022-12-04T03:34:52.007Z,11.57
2022-12-04T03:37:02.297Z,11.63
2022-12-04T03:39:29.300Z,12.67
2022-12-04T03:41:52.688Z,27.77
2022-12-04T03:44:07.005Z,23.20
2022-12-04T03:46:15.938Z,27.13
2022-12-04T03:48:24.510Z,25.90
2022-12-04T03:50:37.425Z,20.30
2022-12-04T03:52:51.411Z,25.60
2022-12-04T03:55:19.232Z,25.17
2022-12-04T03:57:26.174Z,40.60
2022-12-04T03:59:37.536Z,62.23
2022-12-04T04:01:48.963Z,43.33
2022-12-04T04:03:53.935Z,34.30
2022-12-04T04:06:02.491Z,34.87
2022-12-04T04:08:26.863Z,38.10
2022-12-04T04:10:29.099Z,38.10
2022-12-04T04:12:37.128Z,57.83
2022-12-04T04:15:12.738Z,47.97
2022-12-04T04:17:38.690Z,52.00
2022-12-04T04:20:01.996Z,39.23
2022-12-04T04:22:27.452Z,37.07
2022-12-04T04:24:36.881Z,34.70
2022-12-04T04:26:44.875Z,34.10
2022-12-04T04:28:47.116Z,32.30
2022-12-04T04:30:49.514Z,27.23
2022-12-04T04:33:11.888Z,25.77
2022-12-04T04:35:52.803Z,26.47
2022-12-04T04:38:05.138Z,22.63
2022-12-04T04:40:36.347Z,20.73
2022-12-04T04:42:45.448Z,23.20
2022-12-04T04:45:06.088Z,19.43
2022-12-04T04:47:21.818Z,19.00
2022-12-04T04:49:28.680Z,19.70
2022-12-04T04:51:33.825Z,16.93
2022-12-04T04:53:45.050Z,16.27
2022-12-04T04:55:48.252Z,16.83
2022-12-04T04:57:50.403Z,17.60
2022-12-04T04:59:55.657Z,19.07
2022-12-04T05:01:58.696Z,14.70
2022-12-04T05:04:01.764Z,15.50
2022-12-04T05:06:03.911Z,11.10
2022-12-04T05:08:06.221Z,11.33
2022-12-04T05:10:09.681Z,16.13
2022-12-04T05:12:12.247Z,18.87
2022-12-04T05:14:14.373Z,15.97
2022-12-04T05:16:17.266Z,12.13
2022-12-04T05:18:19.542Z,12.97
2022-12-04T05:20:21.932Z,27.00
2022-12-04T05:22:30.467Z,36.97
2022-12-04T05:24:32.988Z,32.17
2022-12-04T05:26:34.918Z,35.30
2022-12-04T05:28:36.988Z,26.77
2022-12-04T05:30:39.617Z,17.33
2022-12-04T05:32:41.787Z,16.47
2022-12-04T05:34:44.403Z,14.37
2022-12-04T05:36:46.459Z,15.73
2022-12-04T05:38:48.812Z,15.37
2022-12-04T05:40:51.044Z,24.37
2022-12-04T05:42:53.435Z,19.90
2022-12-04T05:44:58.029Z,23.77
2022-12-04T05:47:00.444Z,36.73
2022-12-04T05:49:05.253Z,37.43
2022-12-04T05:51:08.894Z,39.70
2022-12-04T05:53:11.179Z,36.67
2022-12-04T05:55:16.156Z,20.60
2022-12-04T05:57:18.531Z,34.07
2022-12-04T05:59:20.783Z,46.93
2022-12-04T06:01:24.342Z,60.73
2022-12-04T06:03:26.634Z,138.20
2022-12-04T06:05:29.053Z,157.87
2022-12-04T06:07:31.445Z,135.70
2022-12-04T06:09:33.683Z,103.00
2022-12-04T06:11:38.118Z,109.77
2022-12-04T06:13:44.889Z,88.77
2022-12-04T06:15:46.984Z,93.93
2022-12-04T06:17:48.983Z,92.50
2022-12-04T06:19:53.834Z,72.17
2022-12-04T06:21:56.414Z,59.57
2022-12-04T06:23:58.693Z,52.97
2022-12-04T06:26:08.480Z,90.77
2022-12-04T06:28:10.886Z,130.93
2022-12-04T06:30:19.063Z,290.37
2022-12-04T06:32:21.997Z,447.23
2022-12-04T06:34:24.346Z,430.53
2022-12-04T06:36:26.830Z,352.87
2022-12-04T06:38:29.928Z,208.67
2022-12-04T06:40:32.156Z,199.37
2022-12-04T06:42:34.604Z,149.10
2022-12-04T06:44:36.877Z,174.30
2022-12-04T06:46:45.083Z,126.53
2022-12-04T06:48:49.978Z,89.63
2022-12-04T06:51:02.057Z,95.80
2022-12-04T06:53:08.328Z,73.97
2022-12-04T06:55:10.889Z,95.70
2022-12-04T06:57:13.340Z,73.57
2022-12-04T06:59:15.329Z,98.80
2022-12-04T07:01:20.745Z,85.87
2022-12-04T07:03:24.264Z,65.63
2022-12-04T07:05:27.550Z,60.77
2022-12-04T07:07:30.179Z,64.37
2022-12-04T07:09:32.579Z,57.50
2022-12-04T07:11:35.349Z,55.83
2022-12-04T07:13:37.721Z,52.77
2022-12-04T07:15:40.108Z,45.67
2022-12-04T07:17:42.155Z,38.20
2022-12-04T07:19:44.473Z,38.17
2022-12-04T07:21:46.695Z,49.33
2022-12-04T07:23:57.645Z,76.13
2022-12-04T07:26:11.014Z,57.77
2022-12-04T07:28:13.920Z,48.30
2022-12-04T07:30:16.505Z,45.13
2022-12-04T07:32:21.044Z,40.03
2022-12-04T07:34:23.311Z,37.30
2022-12-04T07:36:26.241Z,34.07
2022-12-04T07:38:30.490Z,37.23
2022-12-04T07:40:32.927Z,41.33
2022-12-04T07:42:34.985Z,34.60
2022-12-04T07:44:37.771Z,31.57
2022-12-04T07:46:40.100Z,34.73
2022-12-04T07:48:43.012Z,31.67
2022-12-04T07:50:45.368Z,32.03
2022-12-04T07:52:47.588Z,45.03
2022-12-04T07:54:49.861Z,37.73
2022-12-04T07:56:51.942Z,35.43
2022-12-04T07:58:54.374Z,37.57
2022-12-04T08:01:04.551Z,35.90
2022-12-04T08:03:06.609Z,37.90
2022-12-04T08:05:09.054Z,42.80
2022-12-04T08:07:11.165Z,45.53
2022-12-04T08:09:13.710Z,54.30
2022-12-04T08:11:19.358Z,39.90
2022-12-04T08:13:21.647Z,31.67
2022-12-04T08:15:24.026Z,32.43
2022-12-04T08:17:26.220Z,32.67
2022-12-04T08:19:28.575Z,24.27
2022-12-04T08:21:32.778Z,24.77
2022-12-04T08:23:35.973Z,23.30
2022-12-04T08:25:41.787Z,26.00
2022-12-04T08:27:47.722Z,33.87
2022-12-04T08:29:49.963Z,26.00
2022-12-04T08:31:52.056Z,26.70
2022-12-04T08:33:57.033Z,27.80
2022-12-04T08:35:59.882Z,25.77
2022-12-04T08:38:02.244Z,25.30
2022-12-04T08:40:07.571Z,22.37
2022-12-04T08:42:09.952Z,24.40
2022-12-04T08:44:12.121Z,23.27
2022-12-04T08:46:17.495Z,23.60
2022-12-04T08:48:19.826Z,19.23
2022-12-04T08:50:22.003Z,19.03
2022-12-04T08:52:24.444Z,22.17
2022-12-04T08:54:28.513Z,16.40
2022-12-04T08:56:35.728Z,21.83
2022-12-04T08:58:37.937Z,20.73
2022-12-04T09:00:43.272Z,20.50
2022-12-04T09:02:48.569Z,30.50
2022-12-04T09:04:50.712Z,22.97
2022-12-04T09:06:55.297Z,26.00
2022-12-04T09:08:58.441Z,22.30
2022-12-04T09:11:05.323Z,24.60
2022-12-04T09:13:08.227Z,23.67
2022-12-04T09:15:11.038Z,32.63
2022-12-04T09:18:28.237Z,28.43
2022-12-04T09:20:31.151Z,32.10
2022-12-04T09:23:02.199Z,39.10
2022-12-04T09:24:58.902Z,33.93
2022-12-04T09:27:01.664Z,34.80
2022-12-04T09:29:05.169Z,34.70
2022-12-04T09:31:07.369Z,64.23
2022-12-04T09:36:57.094Z,36.40
2022-12-04T09:38:59.381Z,49.47
2022-12-04T09:41:26.160Z,75.33
2022-12-04T09:43:35.346Z,98.43
2022-12-04T09:45:52.472Z,85.57
2022-12-04T09:48:01.164Z,67.57
2022-12-04T09:50:17.516Z,56.93
2022-12-04T09:52:38.354Z,46.70
2022-12-04T09:54:43.132Z,36.93
2022-12-04T09:56:54.531Z,34.77
2022-12-04T09:59:19.853Z,26.83
2022-12-04T10:01:33.221Z,27.93
2022-12-04T10:03:36.144Z,21.67
2022-12-04T10:05:46.442Z,28.33
2022-12-04T10:07:51.351Z,106.70
2022-12-04T10:10:04.644Z,114.37
2022-12-04T10:12:31.302Z,96.17
2022-12-04T10:14:58.167Z,68.87
2022-12-04T10:17:18.875Z,39.13
2022-12-04T10:20:02.621Z,42.60
2022-12-04T10:22:29.028Z,52.43
2022-12-04T10:24:44.872Z,31.30
2022-12-04T10:26:48.793Z,45.80
2022-12-04T10:28:58.973Z,31.10
2022-12-04T10:31:03.594Z,38.80
2022-12-04T10:33:47.857Z,27.37
2022-12-04T10:35:52.839Z,23.33
2022-12-04T10:38:00.569Z,21.27
2022-12-04T10:40:18.571Z,21.27
2022-12-04T10:42:33.072Z,18.23
2022-12-04T10:44:35.769Z,18.90
2022-12-04T10:46:41.869Z,16.33
2022-12-04T10:48:51.080Z,19.70
2022-12-04T10:50:53.212Z,22.03
2022-12-04T10:52:57.179Z,43.13
2022-12-04T10:55:01.810Z,49.37
2022-12-04T10:57:07.614Z,41.00
2022-12-04T10:59:16.183Z,44.30
2022-12-04T11:01:22.374Z,36.47
2022-12-04T11:03:29.067Z,29.10
2022-12-04T11:06:04.514Z,20.37
2022-12-04T11:08:08.145Z,21.20
2022-12-04T11:10:34.111Z,17.47
2022-12-04T11:12:36.533Z,27.93
2022-12-04T11:14:42.754Z,29.30
2022-12-04T11:16:59.674Z,23.90
2022-12-04T11:19:01.948Z,18.70
2022-12-04T11:21:08.491Z,27.77
2022-12-04T11:23:16.495Z,32.40
2022-12-04T11:25:21.707Z,34.47
2022-12-04T11:27:35.318Z,35.83
2022-12-04T11:29:42.471Z,88.20
2022-12-04T11:31:55.749Z,119.83
2022-12-04T11:34:05.741Z,123.50
2022-12-04T11:36:32.404Z,82.10
2022-12-04T11:38:36.325Z,72.97
2022-12-04T11:40:38.758Z,55.90
2022-12-04T11:42:41.189Z,49.87
2022-12-04T11:44:52.556Z,72.93
2022-12-04T11:46:57.302Z,77.40
2022-12-04T11:49:03.497Z,60.70
2022-12-04T11:51:14.792Z,61.60
2022-12-04T11:53:31.811Z,69.63
2022-12-04T11:56:05.666Z,70.88
2022-12-04T11:58:13.859Z,94.43
2022-12-04T12:00:17.707Z,91.38
2022-12-04T12:02:54.108Z,91.30
2022-12-04T12:05:20.868Z,64.05
2022-12-04T12:07:46.985Z,59.47
2022-12-04T12:10:00.221Z,54.72
2022-12-04T12:12:21.685Z,52.57
2022-12-04T12:14:28.128Z,42.88
2022-12-04T12:16:32.927Z,33.97
2022-12-04T12:18:43.808Z,55.42
2022-12-04T12:20:57.831Z,66.87
2022-12-04T12:23:35.087Z,65.18
2022-12-04T12:26:04.660Z,61.13
2022-12-04T12:28:17.114Z,56.28
2022-12-04T12:30:23.778Z,54.63
2022-12-04T12:32:55.503Z,39.67
2022-12-04T12:34:58.824Z,30.37
2022-12-04T12:37:13.549Z,30.27
2022-12-04T12:39:48.360Z,27.90
2022-12-04T12:42:01.326Z,43.50
2022-12-04T12:44:10.914Z,38.95
2022-12-04T12:46:21.077Z,49.03
2022-12-04T12:48:37.552Z,67.63
2022-12-04T12:50:58.204Z,64.35
2022-12-04T12:57:20.889Z,27.10
2022-12-04T12:59:27.099Z,81.82
2022-12-04T13:01:58.721Z,81.30
2022-12-04T13:04:21.493Z,54.13
2022-12-04T13:06:33.978Z,39.00
2022-12-04T13:08:46.375Z,40.28
2022-12-04T13:11:10.998Z,37.22
2022-12-04T13:13:23.736Z,46.15
2022-12-04T13:15:35.443Z,59.90
2022-12-04T13:17:39.660Z,62.63
2022-12-04T13:19:49.894Z,73.30
2022-12-04T13:22:23.614Z,57.72
2022-12-04T13:24:43.996Z,60.15
2022-12-04T13:27:00.412Z,53.40
2022-12-04T13:29:34.676Z,52.08
2022-12-04T13:32:06.940Z,47.50
2022-12-04T13:34:35.133Z,37.42
2022-12-04T13:36:43.284Z,36.25
2022-12-04T13:39:06.609Z,32.88
2022-12-04T13:41:18.438Z,35.38
2022-12-04T13:43:26.538Z,37.15
2022-12-04T13:45:33.801Z,42.00
2022-12-04T13:47:36.789Z,38.47
2022-12-04T13:49:46.373Z,38.87
2022-12-04T13:51:49.433Z,39.83
2022-12-04T13:54:03.913Z,58.10
2022-12-04T13:56:09.587Z,45.20
2022-12-04T13:58:14.210Z,38.85
2022-12-04T14:00:27.970Z,34.35
2022-12-04T14:02:38.081Z,33.57
2022-12-04T14:04:54.005Z,33.28
2022-12-04T14:07:00.259Z,33.00
2022-12-04T14:09:07.055Z,33.13
2022-12-04T14:11:21.370Z,36.13
2022-12-04T14:13:28.369Z,36.57
2022-12-04T14:15:34.122Z,52.63
2022-12-04T14:17:39.701Z,56.23
2022-12-04T14:19:46.614Z,56.47
2022-12-04T14:21:48.887Z,47.83
2022-12-04T14:23:52.807Z,45.53
2022-12-04T14:25:57.958Z,42.93
2022-12-04T14:28:01.240Z,43.13
2022-12-04T14:30:03.750Z,48.97
2022-12-04T14:32:15.628Z,41.23
2022-12-04T14:34:27.269Z,51.83
2022-12-04T14:36:42.179Z,44.60
2022-12-04T14:38:48.574Z,43.43
2022-12-04T14:40:53.992Z,53.78
2022-12-04T14:42:56.839Z,49.53
2022-12-04T14:45:00.750Z,38.50
2022-12-04T14:47:24.476Z,43.90
2022-12-04T14:49:54.700Z,44.50
2022-12-04T14:52:09.986Z,39.60
2022-12-04T14:54:15.494Z,34.67
2022-12-04T14:56:26.613Z,41.33
2022-12-04T14:58:34.903Z,38.60
2022-12-04T15:00:38.408Z,35.40
2022-12-04T15:02:43.547Z,42.30
2022-12-04T15:04:48.119Z,35.07
2022-12-04T15:06:56.809Z,37.13
2022-12-04T15:09:32.379Z,44.67
2022-12-04T15:11:53.256Z,39.60
2022-12-04T15:14:05.761Z,44.13
2022-12-04T15:16:22.347Z,42.13
2022-12-04T15:18:24.805Z,49.67
2022-12-04T15:20:30.486Z,52.03
2022-12-04T15:22:34.643Z,50.47
2022-12-04T15:24:38.049Z,49.70
2022-12-04T15:26:41.051Z,49.53
2022-12-04T15:28:59.576Z,48.27
2022-12-04T15:31:05.979Z,52.13
2022-12-04T15:33:20.785Z,46.93
2022-12-04T15:35:30.227Z,45.17
2022-12-04T15:37:33.185Z,58.70
2022-12-04T15:39:38.290Z,54.07
2022-12-04T15:41:40.597Z,67.70
2022-12-04T15:43:44.348Z,74.57
2022-12-04T15:45:47.262Z,78.10
2022-12-04T15:47:55.984Z,98.50
2022-12-04T15:50:16.422Z,85.70
2022-12-04T15:52:22.351Z,89.73
2022-12-04T15:54:26.670Z,91.37
2022-12-04T15:56:29.626Z,91.80
2022-12-04T15:58:40.308Z,100.53
2022-12-04T16:00:44.399Z,85.40
2022-12-04T16:02:47.096Z,75.97
2022-12-04T16:04:52.676Z,69.50
2022-12-04T16:07:57.854Z,72.83
2022-12-04T16:10:04.112Z,61.53
2022-12-04T16:12:23.963Z,53.97
2022-12-04T16:14:26.556Z,49.87
2022-12-04T16:16:31.411Z,46.30
2022-12-04T16:18:34.236Z,38.67
2022-12-04T16:20:38.483Z,36.07
2022-12-04T16:22:42.341Z,34.67
2022-12-04T16:24:45.431Z,33.73
2022-12-04T16:26:50.273Z,34.00
2022-12-04T16:28:51.953Z,38.83
2022-12-04T16:30:53.945Z,43.23
2022-12-04T16:32:58.769Z,47.27
2022-12-04T16:35:01.094Z,45.27
2022-12-04T16:37:11.658Z,49.97
2022-12-04T16:39:13.614Z,54.90
2022-12-04T16:41:17.990Z,49.23
2022-12-04T16:43:20.042Z,77.13
2022-12-04T16:45:32.114Z,66.63
2022-12-04T16:47:34.191Z,63.37
2022-12-04T16:49:36.383Z,63.63
2022-12-04T16:51:47.002Z,55.90
2022-12-04T16:54:14.176Z,56.07
2022-12-04T16:56:16.129Z,43.23
2022-12-04T16:58:20.588Z,52.10
2022-12-04T17:00:22.730Z,60.20
2022-12-04T17:02:27.601Z,51.50
2022-12-04T17:04:29.698Z,55.40
2022-12-04T17:06:32.511Z,53.20
2022-12-04T17:08:34.602Z,71.90
2022-12-04T17:10:36.714Z,83.47
2022-12-04T17:12:39.174Z,75.47
2022-12-04T17:14:41.311Z,71.60
2022-12-04T17:16:45.120Z,118.97
2022-12-04T17:18:47.530Z,128.13
2022-12-04T17:20:49.833Z,130.27
2022-12-04T17:26:52.306Z,147.93
2022-12-04T17:28:54.543Z,127.73
2022-12-04T17:30:57.514Z,69.23
2022-12-04T17:33:01.037Z,70.63
2022-12-04T17:35:05.380Z,62.27
2022-12-04T17:37:07.769Z,57.50
2022-12-04T17:39:13.598Z,50.50
2022-12-04T17:41:16.274Z,43.77
2022-12-04T17:43:22.075Z,59.00
2022-12-04T17:45:24.413Z,69.27
2022-12-04T17:47:26.757Z,77.73
2022-12-04T17:49:29.251Z,77.80
2022-12-04T17:51:31.690Z,78.53
2022-12-04T17:53:34.446Z,77.30
2022-12-04T17:55:36.694Z,94.50
2022-12-04T17:57:39.476Z,92.83
2022-12-04T17:59:42.334Z,94.80
2022-12-04T18:01:44.789Z,83.00
2022-12-04T18:04:01.983Z,72.80
2022-12-04T18:06:23.399Z,70.00
2022-12-04T18:08:29.209Z,69.87
2022-12-04T18:10:31.518Z,78.17
2022-12-04T18:12:33.892Z,74.40
2022-12-04T18:14:37.276Z,90.10
2022-12-04T18:16:48.220Z,87.80
2022-12-04T18:18:54.176Z,88.83
2022-12-04T18:21:13.141Z,88.17
2022-12-04T18:23:15.699Z,80.10
2022-12-04T18:25:19.240Z,85.70
2022-12-04T18:27:22.974Z,85.33
2022-12-04T18:29:27.109Z,78.50
2022-12-04T18:31:29.382Z,83.23
2022-12-04T18:33:32.780Z,76.83
2022-12-04T18:35:35.011Z,81.90
2022-12-04T18:37:39.913Z,73.23
2022-12-04T18:39:41.929Z,68.27
2022-12-04T18:41:44.579Z,66.50
2022-12-04T18:43:46.835Z,71.40
2022-12-04T18:46:02.728Z,66.80
2022-12-04T18:48:09.939Z,75.30
2022-12-04T18:50:12.357Z,84.20
2022-12-04T18:52:14.382Z,70.63
2022-12-04T18:54:19.196Z,66.63
2022-12-04T18:56:21.984Z,67.93
2022-12-04T18:58:24.272Z,75.73
2022-12-04T19:00:27.563Z,73.73
2022-12-04T19:02:29.993Z,77.27
2022-12-04T19:04:33.299Z,72.77
2022-12-04T19:06:44.044Z,74.97
2022-12-04T19:08:46.107Z,72.97
2022-12-04T19:10:48.147Z,69.70
2022-12-04T19:12:51.365Z,72.13
2022-12-04T19:14:53.624Z,77.07
2022-12-04T19:17:23.691Z,80.17
2022-12-04T19:19:31.642Z,70.23
2022-12-04T19:21:35.002Z,67.33
2022-12-04T19:23:41.065Z,63.70
2022-12-04T19:25:43.280Z,63.13
2022-12-04T19:27:45.584Z,60.00
2022-12-04T19:29:48.092Z,68.63
2022-12-04T19:31:54.655Z,70.60
2022-12-04T19:34:01.796Z,68.87
2022-12-04T19:36:06.243Z,55.93
2022-12-04T19:38:08.584Z,55.30
2022-12-04T19:40:11.311Z,63.73
2022-12-04T19:42:13.580Z,60.67
2022-12-04T19:46:40.772Z,55.10
2022-12-04T19:48:45.345Z,56.43
2022-12-04T19:50:49.902Z,49.43
2022-12-04T19:52:52.188Z,35.20
2022-12-04T19:54:54.208Z,37.37
2022-12-04T19:56:56.486Z,37.20
2022-12-04T19:59:02.237Z,50.33
2022-12-04T20:01:06.925Z,51.67
2022-12-04T20:03:09.627Z,50.13
2022-12-04T20:05:11.876Z,44.73
2022-12-04T20:07:14.313Z,49.13
2022-12-04T20:09:20.778Z,62.20
2022-12-04T20:11:23.821Z,70.60
2022-12-04T20:13:26.209Z,62.47
2022-12-04T20:15:28.590Z,54.93
2022-12-04T20:17:33.722Z,53.23
2022-12-04T20:19:36.199Z,45.80
2022-12-04T20:21:38.515Z,38.20
2022-12-04T20:23:42.926Z,34.43
2022-12-04T20:25:47.362Z,32.13
2022-12-04T20:27:50.174Z,34.67
2022-12-04T20:29:52.205Z,36.50
2022-12-04T20:31:54.461Z,39.70
2022-12-04T20:33:58.523Z,32.20
2022-12-04T20:36:01.049Z,36.87
2022-12-04T20:38:03.872Z,29.50
2022-12-04T20:40:07.866Z,24.73
2022-12-04T20:42:10.242Z,23.77
2022-12-04T20:44:19.002Z,20.87
2022-12-04T20:46:27.536Z,20.13
2022-12-04T20:48:30.242Z,22.13
2022-12-04T20:50:32.885Z,24.60
2022-12-04T20:52:35.136Z,26.73
2022-12-04T20:54:41.350Z,28.73
2022-12-04T20:56:44.294Z,28.33
2022-12-04T20:58:46.468Z,31.33
2022-12-04T21:00:49.407Z,31.53
2022-12-04T21:02:51.673Z,28.23
2022-12-04T21:04:56.132Z,27.10
2022-12-04T21:06:58.887Z,28.67
2022-12-04T21:09:02.338Z,21.80
2022-12-04T21:11:04.361Z,30.70
2022-12-04T21:13:24.971Z,22.30
2022-12-04T21:15:45.827Z,20.53
2022-12-04T21:17:47.802Z,19.90
2022-12-04T21:19:51.156Z,27.67
2022-12-04T21:21:53.398Z,23.70
2022-12-04T21:23:55.635Z,36.30
2022-12-04T21:25:58.090Z,90.07
2022-12-04T21:28:25.226Z,103.93
2022-12-04T21:30:27.480Z,85.77
2022-12-04T21:32:29.785Z,82.33
2022-12-04T21:34:32.338Z,80.93
2022-12-04T21:36:34.665Z,68.70
2022-12-04T21:38:40.044Z,61.37
2022-12-04T21:40:42.698Z,52.00
2022-12-04T21:42:44.859Z,33.83
2022-12-04T21:44:46.919Z,29.17
2022-12-04T21:46:50.026Z,29.47
2022-12-04T21:48:52.576Z,28.20
2022-12-04T21:50:55.218Z,33.83
2022-12-04T21:52:57.205Z,34.77
2022-12-04T21:54:59.406Z,27.57
2022-12-04T21:57:01.436Z,38.90
2022-12-04T21:59:03.616Z,42.43
2022-12-04T22:01:14.207Z,51.57
2022-12-04T22:03:16.448Z,43.57
2022-12-04T22:05:18.421Z,42.67
2022-12-04T22:07:20.688Z,31.30
2022-12-04T22:09:22.809Z,37.03
2022-12-04T22:11:24.780Z,43.23
2022-12-04T22:13:26.685Z,38.87
2022-12-04T22:15:28.774Z,38.17
2022-12-04T22:17:30.929Z,37.83
2022-12-04T22:19:34.168Z,34.33
2022-12-04T22:21:36.201Z,35.20
2022-12-04T22:23:39.154Z,36.97
2022-12-04T22:25:41.318Z,45.07
2022-12-04T22:27:43.371Z,39.90
2022-12-04T22:29:50.615Z,43.27
2022-12-04T22:31:53.095Z,42.13
2022-12-04T22:33:57.261Z,39.60
2022-12-04T22:36:10.615Z,35.00
2022-12-04T22:38:12.663Z,35.63
2022-12-04T22:40:15.651Z,42.30
2022-12-04T22:42:17.619Z,45.40
2022-12-04T22:44:19.830Z,43.10
2022-12-04T22:46:21.885Z,44.07
2022-12-04T22:48:25.515Z,52.37
2022-12-04T22:50:27.651Z,48.70
2022-12-04T22:52:31.493Z,47.33
2022-12-04T22:54:33.595Z,59.80
2022-12-04T22:56:35.542Z,46.63
2022-12-04T22:58:37.644Z,45.30
2022-12-04T23:00:39.682Z,37.20
2022-12-04T23:02:41.955Z,37.13
2022-12-04T23:04:44.173Z,32.60
2022-12-04T23:06:46.328Z,43.10
2022-12-04T23:08:48.811Z,41.00
2022-12-04T23:10:51.204Z,43.70
2022-12-04T23:12:53.048Z,43.40
2022-12-04T23:14:55.068Z,43.27
2022-12-04T23:16:57.527Z,39.57
2022-12-04T23:18:59.924Z,32.50
2022-12-04T23:21:06.962Z,36.33
2022-12-04T23:23:09.569Z,40.17
2022-12-04T23:25:11.769Z,32.40
2022-12-04T23:27:13.922Z,33.17
2022-12-04T23:29:44.809Z,33.60
2022-12-04T23:31:41.362Z,35.00
2022-12-04T23:33:43.847Z,34.80
2022-12-04T23:35:46.362Z,37.63
2022-12-04T23:37:48.614Z,39.83
2022-12-04T23:39:51.346Z,36.47
2022-12-04T23:41:53.619Z,36.50
2022-12-04T23:43:56.370Z,34.10
2022-12-04T23:45:58.661Z,33.27
2022-12-04T23:48:01.174Z,33.90
2022-12-04T23:50:05.013Z,38.37
2022-12-04T23:52:07.277Z,39.30
2022-12-04T23:54:09.357Z,34.23
2022-12-04T23:56:14.990Z,36.53
2022-12-04T23:58:17.216Z,42.13
